sensor_id;sensor_type;location;lat;lon;timestamp;P1;durP1;ratioP1;P2;durP2;ratioP2
75986;SDS011;64671;44.726;37.764;2022-12-11T00:00:46;6.45;;;5.10;;
75986;SDS011;64671;44.726;37.764;2022-12-11T00:02:49;6.78;;;5.22;;
75986;SDS011;64671;44.726;37.764;2022-12-11T00:04:53;5.47;;;4.82;;
75986;SDS011;64671;44.726;37.764;2022-12-11T00:05:55;6.80;;;4.95;;
75986;SDS011;64671;44.726;37.764;2022-12-11T00:06:56;7.07;;;4.90;;
75986;SDS011;64671;44.726;37.764;2022-12-11T00:07:57;6.18;;;5.03;;
75986;SDS011;64671;44.726;37.764;2022-12-11T00:10:02;6.40;;;5.00;;
75986;SDS011;64671;44.726;37.764;2022-12-11T00:11:06;6.80;;;4.63;;
75986;SDS011;64671;44.726;37.764;2022-12-11T00:13:34;6.13;;;5.53;;
75986;SDS011;64671;44.726;37.764;2022-12-11T00:14:36;6.13;;;5.53;;
75986;SDS011;64671;44.726;37.764;2022-12-11T00:15:37;7.85;;;5.28;;
75986;SDS011;64671;44.726;37.764;2022-12-11T00:16:39;6.07;;;5.47;;
75986;SDS011;64671;44.726;37.764;2022-12-11T00:17:41;7.38;;;5.40;;
75986;SDS011;64671;44.726;37.764;2022-12-11T00:18:42;6.05;;;4.95;;
75986;SDS011;64671;44.726;37.764;2022-12-11T00:19:44;6.85;;;4.97;;
75986;SDS011;64671;44.726;37.764;2022-12-11T00:21:56;6.82;;;4.65;;
75986;SDS011;64671;44.726;37.764;2022-12-11T00:22:57;6.43;;;5.28;;
75986;SDS011;64671;44.726;37.764;2022-12-11T00:24:54;5.00;;;4.35;;
75986;SDS011;64671;44.726;37.764;2022-12-11T00:27:06;6.38;;;4.70;;
75986;SDS011;64671;44.726;37.764;2022-12-11T00:28:55;6.43;;;4.78;;
75986;SDS011;64671;44.726;37.764;2022-12-11T00:29:57;5.57;;;4.78;;
75986;SDS011;64671;44.726;37.764;2022-12-11T00:31:02;6.57;;;4.82;;
75986;SDS011;64671;44.726;37.764;2022-12-11T00:35:59;6.32;;;4.53;;
75986;SDS011;64671;44.726;37.764;2022-12-11T00:38:01;6.93;;;5.03;;
75986;SDS011;64671;44.726;37.764;2022-12-11T00:39:03;6.10;;;5.13;;
75986;SDS011;64671;44.726;37.764;2022-12-11T00:40:05;6.05;;;5.38;;
75986;SDS011;64671;44.726;37.764;2022-12-11T00:41:07;5.93;;;4.70;;
75986;SDS011;64671;44.726;37.764;2022-12-11T00:42:09;5.95;;;5.25;;
75986;SDS011;64671;44.726;37.764;2022-12-11T00:43:10;5.97;;;5.13;;
75986;SDS011;64671;44.726;37.764;2022-12-11T00:44:12;5.90;;;4.88;;
75986;SDS011;64671;44.726;37.764;2022-12-11T00:46:08;6.55;;;5.63;;
75986;SDS011;64671;44.726;37.764;2022-12-11T00:47:10;5.80;;;5.20;;
75986;SDS011;64671;44.726;37.764;2022-12-11T00:48:12;6.00;;;4.88;;
75986;SDS011;64671;44.726;37.764;2022-12-11T00:50:54;6.40;;;5.28;;
75986;SDS011;64671;44.726;37.764;2022-12-11T00:52:44;5.68;;;4.72;;
75986;SDS011;64671;44.726;37.764;2022-12-11T00:59:01;5.80;;;4.88;;
75986;SDS011;64671;44.726;37.764;2022-12-11T01:01:08;6.28;;;4.28;;
75986;SDS011;64671;44.726;37.764;2022-12-11T01:02:11;6.78;;;4.88;;
75986;SDS011;64671;44.726;37.764;2022-12-11T01:03:13;6.22;;;4.90;;
75986;SDS011;64671;44.726;37.764;2022-12-11T01:05:34;6.28;;;5.05;;
75986;SDS011;64671;44.726;37.764;2022-12-11T01:06:35;6.93;;;5.63;;
75986;SDS011;64671;44.726;37.764;2022-12-11T01:07:37;6.80;;;5.35;;
75986;SDS011;64671;44.726;37.764;2022-12-11T01:08:38;6.05;;;5.40;;
75986;SDS011;64671;44.726;37.764;2022-12-11T01:09:39;6.20;;;5.60;;
75986;SDS011;64671;44.726;37.764;2022-12-11T01:11:00;6.45;;;5.50;;
75986;SDS011;64671;44.726;37.764;2022-12-11T01:13:08;5.43;;;4.32;;
75986;SDS011;64671;44.726;37.764;2022-12-11T01:14:11;5.45;;;4.60;;
75986;SDS011;64671;44.726;37.764;2022-12-11T01:15:12;7.15;;;4.97;;
75986;SDS011;64671;44.726;37.764;2022-12-11T01:16:14;7.90;;;4.97;;
75986;SDS011;64671;44.726;37.764;2022-12-11T01:19:12;5.82;;;4.88;;
75986;SDS011;64671;44.726;37.764;2022-12-11T01:21:15;6.30;;;4.93;;
75986;SDS011;64671;44.726;37.764;2022-12-11T01:22:17;6.55;;;4.90;;
75986;SDS011;64671;44.726;37.764;2022-12-11T01:23:18;5.63;;;4.38;;
75986;SDS011;64671;44.726;37.764;2022-12-11T01:24:19;6.20;;;4.82;;
75986;SDS011;64671;44.726;37.764;2022-12-11T01:25:21;6.13;;;4.70;;
75986;SDS011;64671;44.726;37.764;2022-12-11T01:26:22;7.10;;;5.40;;
75986;SDS011;64671;44.726;37.764;2022-12-11T01:31:34;8.25;;;4.55;;
75986;SDS011;64671;44.726;37.764;2022-12-11T01:32:35;4.97;;;4.30;;
75986;SDS011;64671;44.726;37.764;2022-12-11T01:34:39;7.25;;;4.90;;
75986;SDS011;64671;44.726;37.764;2022-12-11T01:35:40;6.95;;;5.13;;
75986;SDS011;64671;44.726;37.764;2022-12-11T01:39:17;4.85;;;4.10;;
75986;SDS011;64671;44.726;37.764;2022-12-11T01:41:15;5.97;;;5.00;;
75986;SDS011;64671;44.726;37.764;2022-12-11T01:42:18;6.38;;;5.15;;
75986;SDS011;64671;44.726;37.764;2022-12-11T01:46:21;6.55;;;5.00;;
75986;SDS011;64671;44.726;37.764;2022-12-11T01:47:22;6.35;;;4.88;;
75986;SDS011;64671;44.726;37.764;2022-12-11T01:48:26;6.47;;;5.15;;
75986;SDS011;64671;44.726;37.764;2022-12-11T01:51:11;6.47;;;4.63;;
75986;SDS011;64671;44.726;37.764;2022-12-11T01:52:14;6.75;;;5.30;;
75986;SDS011;64671;44.726;37.764;2022-12-11T01:53:20;6.00;;;4.93;;
75986;SDS011;64671;44.726;37.764;2022-12-11T01:54:24;7.07;;;5.18;;
75986;SDS011;64671;44.726;37.764;2022-12-11T01:55:27;6.75;;;5.00;;
75986;SDS011;64671;44.726;37.764;2022-12-11T01:56:29;6.78;;;4.97;;
75986;SDS011;64671;44.726;37.764;2022-12-11T01:57:32;6.13;;;5.00;;
75986;SDS011;64671;44.726;37.764;2022-12-11T01:58:37;6.07;;;4.93;;
75986;SDS011;64671;44.726;37.764;2022-12-11T01:59:43;6.38;;;5.10;;
75986;SDS011;64671;44.726;37.764;2022-12-11T02:00:46;6.18;;;4.40;;
75986;SDS011;64671;44.726;37.764;2022-12-11T02:02:01;6.72;;;5.03;;
75986;SDS011;64671;44.726;37.764;2022-12-11T02:03:03;5.90;;;4.90;;
75986;SDS011;64671;44.726;37.764;2022-12-11T02:05:59;6.78;;;5.53;;
75986;SDS011;64671;44.726;37.764;2022-12-11T02:07:01;7.88;;;5.20;;
75986;SDS011;64671;44.726;37.764;2022-12-11T02:08:59;7.55;;;5.03;;
75986;SDS011;64671;44.726;37.764;2022-12-11T02:11:32;5.70;;;4.75;;
75986;SDS011;64671;44.726;37.764;2022-12-11T02:15:32;6.38;;;4.97;;
75986;SDS011;64671;44.726;37.764;2022-12-11T02:17:12;6.88;;;5.18;;
75986;SDS011;64671;44.726;37.764;2022-12-11T02:18:28;5.68;;;4.85;;
75986;SDS011;64671;44.726;37.764;2022-12-11T02:19:43;7.82;;;5.30;;
75986;SDS011;64671;44.726;37.764;2022-12-11T02:21:19;6.88;;;5.10;;
75986;SDS011;64671;44.726;37.764;2022-12-11T02:32:25;5.68;;;4.65;;
75986;SDS011;64671;44.726;37.764;2022-12-11T02:34:51;7.30;;;5.47;;
75986;SDS011;64671;44.726;37.764;2022-12-11T02:35:59;5.85;;;4.80;;
75986;SDS011;64671;44.726;37.764;2022-12-11T02:38:26;5.68;;;4.90;;
75986;SDS011;64671;44.726;37.764;2022-12-11T02:40:50;6.40;;;5.20;;
75986;SDS011;64671;44.726;37.764;2022-12-11T02:41:53;7.65;;;5.25;;
75986;SDS011;64671;44.726;37.764;2022-12-11T02:42:56;5.90;;;5.22;;
75986;SDS011;64671;44.726;37.764;2022-12-11T02:44:01;5.90;;;4.82;;
75986;SDS011;64671;44.726;37.764;2022-12-11T02:45:05;7.97;;;4.95;;
75986;SDS011;64671;44.726;37.764;2022-12-11T02:46:09;7.25;;;5.18;;
75986;SDS011;64671;44.726;37.764;2022-12-11T02:49:25;6.63;;;4.97;;
75986;SDS011;64671;44.726;37.764;2022-12-11T02:50:28;6.13;;;5.53;;
75986;SDS011;64671;44.726;37.764;2022-12-11T02:51:31;6.15;;;5.55;;
75986;SDS011;64671;44.726;37.764;2022-12-11T02:55:26;7.07;;;5.00;;
75986;SDS011;64671;44.726;37.764;2022-12-11T02:58:13;5.60;;;4.57;;
75986;SDS011;64671;44.726;37.764;2022-12-11T03:00:00;7.03;;;5.50;;
75986;SDS011;64671;44.726;37.764;2022-12-11T03:00:44;7.47;;;5.18;;
75986;SDS011;64671;44.726;37.764;2022-12-11T03:02:42;7.80;;;5.05;;
75986;SDS011;64671;44.726;37.764;2022-12-11T03:03:44;6.13;;;4.97;;
75986;SDS011;64671;44.726;37.764;2022-12-11T03:04:45;7.05;;;5.13;;
75986;SDS011;64671;44.726;37.764;2022-12-11T03:05:47;6.68;;;4.90;;
75986;SDS011;64671;44.726;37.764;2022-12-11T03:09:03;6.50;;;4.53;;
75986;SDS011;64671;44.726;37.764;2022-12-11T03:15:19;5.90;;;4.80;;
75986;SDS011;64671;44.726;37.764;2022-12-11T03:16:27;6.63;;;4.82;;
75986;SDS011;64671;44.726;37.764;2022-12-11T03:24:35;7.03;;;5.22;;
75986;SDS011;64671;44.726;37.764;2022-12-11T03:29:17;6.40;;;4.68;;
75986;SDS011;64671;44.726;37.764;2022-12-11T03:30:33;6.97;;;5.05;;
75986;SDS011;64671;44.726;37.764;2022-12-11T03:31:38;6.32;;;4.65;;
75986;SDS011;64671;44.726;37.764;2022-12-11T03:33:05;6.82;;;5.07;;
75986;SDS011;64671;44.726;37.764;2022-12-11T03:35:39;6.07;;;5.22;;
75986;SDS011;64671;44.726;37.764;2022-12-11T03:41:25;7.35;;;5.30;;
75986;SDS011;64671;44.726;37.764;2022-12-11T03:43:17;6.18;;;4.60;;
75986;SDS011;64671;44.726;37.764;2022-12-11T03:44:21;6.70;;;4.53;;
75986;SDS011;64671;44.726;37.764;2022-12-11T03:46:11;7.18;;;5.90;;
75986;SDS011;64671;44.726;37.764;2022-12-11T03:47:19;6.90;;;5.72;;
75986;SDS011;64671;44.726;37.764;2022-12-11T03:48:22;6.15;;;5.25;;
75986;SDS011;64671;44.726;37.764;2022-12-11T03:49:28;5.72;;;4.88;;
75986;SDS011;64671;44.726;37.764;2022-12-11T03:50:33;7.63;;;5.68;;
75986;SDS011;64671;44.726;37.764;2022-12-11T03:53:12;6.38;;;5.25;;
75986;SDS011;64671;44.726;37.764;2022-12-11T03:54:14;6.18;;;4.60;;
75986;SDS011;64671;44.726;37.764;2022-12-11T03:55:16;6.35;;;5.00;;
75986;SDS011;64671;44.726;37.764;2022-12-11T03:56:20;7.38;;;4.80;;
75986;SDS011;64671;44.726;37.764;2022-12-11T03:57:24;6.60;;;4.90;;
75986;SDS011;64671;44.726;37.764;2022-12-11T03:58:30;6.15;;;4.93;;
75986;SDS011;64671;44.726;37.764;2022-12-11T03:59:31;6.85;;;5.32;;
75986;SDS011;64671;44.726;37.764;2022-12-11T04:02:48;5.70;;;4.25;;
75986;SDS011;64671;44.726;37.764;2022-12-11T04:04:09;6.43;;;5.05;;
75986;SDS011;64671;44.726;37.764;2022-12-11T04:06:12;6.75;;;5.10;;
75986;SDS011;64671;44.726;37.764;2022-12-11T04:07:13;7.40;;;5.88;;
75986;SDS011;64671;44.726;37.764;2022-12-11T04:08:15;6.95;;;5.07;;
75986;SDS011;64671;44.726;37.764;2022-12-11T04:11:31;4.93;;;4.43;;
75986;SDS011;64671;44.726;37.764;2022-12-11T04:13:23;6.35;;;4.53;;
75986;SDS011;64671;44.726;37.764;2022-12-11T04:14:24;6.53;;;4.95;;
75986;SDS011;64671;44.726;37.764;2022-12-11T04:15:44;6.35;;;4.88;;
75986;SDS011;64671;44.726;37.764;2022-12-11T04:16:46;6.32;;;4.55;;
75986;SDS011;64671;44.726;37.764;2022-12-11T04:18:35;7.10;;;5.65;;
75986;SDS011;64671;44.726;37.764;2022-12-11T04:19:55;6.43;;;4.85;;
75986;SDS011;64671;44.726;37.764;2022-12-11T04:21:15;6.18;;;5.20;;
75986;SDS011;64671;44.726;37.764;2022-12-11T04:22:35;6.32;;;5.22;;
75986;SDS011;64671;44.726;37.764;2022-12-11T04:23:54;5.93;;;4.78;;
75986;SDS011;64671;44.726;37.764;2022-12-11T04:25:14;6.35;;;5.38;;
75986;SDS011;64671;44.726;37.764;2022-12-11T04:26:17;6.40;;;5.13;;
75986;SDS011;64671;44.726;37.764;2022-12-11T04:30:47;5.35;;;4.15;;
75986;SDS011;64671;44.726;37.764;2022-12-11T04:32:53;5.70;;;4.53;;
75986;SDS011;64671;44.726;37.764;2022-12-11T04:34:43;5.15;;;4.65;;
75986;SDS011;64671;44.726;37.764;2022-12-11T04:35:44;6.28;;;4.82;;
75986;SDS011;64671;44.726;37.764;2022-12-11T04:36:45;7.45;;;5.60;;
75986;SDS011;64671;44.726;37.764;2022-12-11T04:37:47;7.28;;;5.40;;
75986;SDS011;64671;44.726;37.764;2022-12-11T04:38:49;5.80;;;5.20;;
75986;SDS011;64671;44.726;37.764;2022-12-11T04:39:50;5.00;;;4.43;;
75986;SDS011;64671;44.726;37.764;2022-12-11T04:42:07;6.75;;;4.93;;
75986;SDS011;64671;44.726;37.764;2022-12-11T04:43:08;6.70;;;5.03;;
75986;SDS011;64671;44.726;37.764;2022-12-11T04:44:10;6.68;;;5.15;;
75986;SDS011;64671;44.726;37.764;2022-12-11T04:46:06;4.93;;;4.18;;
75986;SDS011;64671;44.726;37.764;2022-12-11T04:47:10;6.82;;;4.72;;
75986;SDS011;64671;44.726;37.764;2022-12-11T04:48:12;6.10;;;4.78;;
75986;SDS011;64671;44.726;37.764;2022-12-11T04:49:13;5.70;;;4.75;;
75986;SDS011;64671;44.726;37.764;2022-12-11T04:51:16;6.93;;;4.68;;
75986;SDS011;64671;44.726;37.764;2022-12-11T04:52:21;7.00;;;5.00;;
75986;SDS011;64671;44.726;37.764;2022-12-11T04:53:23;6.80;;;4.68;;
75986;SDS011;64671;44.726;37.764;2022-12-11T04:54:24;6.47;;;4.55;;
75986;SDS011;64671;44.726;37.764;2022-12-11T04:56:27;6.05;;;4.70;;
75986;SDS011;64671;44.726;37.764;2022-12-11T04:57:28;6.80;;;4.72;;
75986;SDS011;64671;44.726;37.764;2022-12-11T04:58:30;5.55;;;4.55;;
75986;SDS011;64671;44.726;37.764;2022-12-11T04:59:31;7.40;;;4.47;;
75986;SDS011;64671;44.726;37.764;2022-12-11T05:00:33;5.13;;;4.50;;
75986;SDS011;64671;44.726;37.764;2022-12-11T05:01:34;5.68;;;4.40;;
75986;SDS011;64671;44.726;37.764;2022-12-11T05:02:36;5.53;;;4.45;;
75986;SDS011;64671;44.726;37.764;2022-12-11T05:03:38;5.97;;;4.22;;
75986;SDS011;64671;44.726;37.764;2022-12-11T05:04:40;6.65;;;4.78;;
75986;SDS011;64671;44.726;37.764;2022-12-11T05:06:52;5.25;;;4.47;;
75986;SDS011;64671;44.726;37.764;2022-12-11T05:08:55;6.20;;;4.20;;
75986;SDS011;64671;44.726;37.764;2022-12-11T05:11:15;6.22;;;4.95;;
75986;SDS011;64671;44.726;37.764;2022-12-11T05:14:27;5.75;;;4.55;;
75986;SDS011;64671;44.726;37.764;2022-12-11T05:15:31;6.20;;;4.57;;
75986;SDS011;64671;44.726;37.764;2022-12-11T05:16:32;5.55;;;4.43;;
75986;SDS011;64671;44.726;37.764;2022-12-11T05:17:34;5.75;;;4.60;;
75986;SDS011;64671;44.726;37.764;2022-12-11T05:18:35;5.68;;;4.43;;
75986;SDS011;64671;44.726;37.764;2022-12-11T05:19:36;6.00;;;4.43;;
75986;SDS011;64671;44.726;37.764;2022-12-11T05:25:25;6.38;;;4.10;;
75986;SDS011;64671;44.726;37.764;2022-12-11T05:26:27;6.28;;;4.78;;
75986;SDS011;64671;44.726;37.764;2022-12-11T05:27:28;6.22;;;4.55;;
75986;SDS011;64671;44.726;37.764;2022-12-11T05:29:33;6.15;;;4.63;;
75986;SDS011;64671;44.726;37.764;2022-12-11T05:31:57;5.82;;;4.50;;
75986;SDS011;64671;44.726;37.764;2022-12-11T05:32:58;5.32;;;4.60;;
75986;SDS011;64671;44.726;37.764;2022-12-11T05:34:00;10.25;;;4.68;;
75986;SDS011;64671;44.726;37.764;2022-12-11T05:37:33;6.72;;;5.20;;
75986;SDS011;64671;44.726;37.764;2022-12-11T05:38:34;5.95;;;4.90;;
75986;SDS011;64671;44.726;37.764;2022-12-11T05:39:36;6.70;;;5.20;;
75986;SDS011;64671;44.726;37.764;2022-12-11T05:40:38;5.70;;;4.70;;
75986;SDS011;64671;44.726;37.764;2022-12-11T05:42:27;5.57;;;4.30;;
75986;SDS011;64671;44.726;37.764;2022-12-11T05:43:29;6.45;;;4.30;;
75986;SDS011;64671;44.726;37.764;2022-12-11T05:44:33;5.88;;;4.47;;
75986;SDS011;64671;44.726;37.764;2022-12-11T05:45:34;6.40;;;4.60;;
75986;SDS011;64671;44.726;37.764;2022-12-11T05:46:36;5.70;;;4.30;;
75986;SDS011;64671;44.726;37.764;2022-12-11T05:47:37;5.78;;;4.47;;
75986;SDS011;64671;44.726;37.764;2022-12-11T05:48:40;6.38;;;4.47;;
75986;SDS011;64671;44.726;37.764;2022-12-11T05:49:42;5.47;;;4.18;;
75986;SDS011;64671;44.726;37.764;2022-12-11T05:50:44;5.32;;;4.55;;
75986;SDS011;64671;44.726;37.764;2022-12-11T05:51:55;4.75;;;4.03;;
75986;SDS011;64671;44.726;37.764;2022-12-11T05:52:56;6.78;;;4.80;;
75986;SDS011;64671;44.726;37.764;2022-12-11T05:53:58;6.22;;;4.70;;
75986;SDS011;64671;44.726;37.764;2022-12-11T05:54:59;4.95;;;4.40;;
75986;SDS011;64671;44.726;37.764;2022-12-11T05:56:01;5.90;;;4.25;;
75986;SDS011;64671;44.726;37.764;2022-12-11T05:57:15;5.55;;;4.28;;
75986;SDS011;64671;44.726;37.764;2022-12-11T05:58:18;6.00;;;4.07;;
75986;SDS011;64671;44.726;37.764;2022-12-11T05:59:20;6.40;;;4.70;;
75986;SDS011;64671;44.726;37.764;2022-12-11T06:00:22;6.07;;;4.38;;
75986;SDS011;64671;44.726;37.764;2022-12-11T06:01:30;5.55;;;4.43;;
75986;SDS011;64671;44.726;37.764;2022-12-11T06:02:42;4.40;;;3.85;;
75986;SDS011;64671;44.726;37.764;2022-12-11T06:03:43;5.03;;;4.13;;
75986;SDS011;64671;44.726;37.764;2022-12-11T06:04:45;5.38;;;4.13;;
75986;SDS011;64671;44.726;37.764;2022-12-11T06:05:46;7.25;;;4.97;;
75986;SDS011;64671;44.726;37.764;2022-12-11T06:06:47;5.55;;;4.45;;
75986;SDS011;64671;44.726;37.764;2022-12-11T06:07:49;6.38;;;4.30;;
75986;SDS011;64671;44.726;37.764;2022-12-11T06:08:54;6.70;;;4.55;;
75986;SDS011;64671;44.726;37.764;2022-12-11T06:09:56;5.78;;;4.68;;
75986;SDS011;64671;44.726;37.764;2022-12-11T06:10:58;5.53;;;4.30;;
75986;SDS011;64671;44.726;37.764;2022-12-11T06:11:59;5.38;;;4.13;;
75986;SDS011;64671;44.726;37.764;2022-12-11T06:13:00;6.05;;;4.20;;
75986;SDS011;64671;44.726;37.764;2022-12-11T06:14:02;6.40;;;4.45;;
75986;SDS011;64671;44.726;37.764;2022-12-11T06:15:04;5.88;;;4.50;;
75986;SDS011;64671;44.726;37.764;2022-12-11T06:16:06;5.80;;;4.25;;
75986;SDS011;64671;44.726;37.764;2022-12-11T06:17:08;5.57;;;4.78;;
75986;SDS011;64671;44.726;37.764;2022-12-11T06:19:14;5.55;;;3.95;;
75986;SDS011;64671;44.726;37.764;2022-12-11T06:20:18;5.43;;;4.65;;
75986;SDS011;64671;44.726;37.764;2022-12-11T06:22:22;5.32;;;4.18;;
75986;SDS011;64671;44.726;37.764;2022-12-11T06:23:23;5.30;;;4.07;;
75986;SDS011;64671;44.726;37.764;2022-12-11T06:24:24;5.88;;;4.60;;
75986;SDS011;64671;44.726;37.764;2022-12-11T06:26:59;5.70;;;3.97;;
75986;SDS011;64671;44.726;37.764;2022-12-11T06:28:01;4.85;;;4.15;;
75986;SDS011;64671;44.726;37.764;2022-12-11T06:29:02;6.07;;;4.55;;
75986;SDS011;64671;44.726;37.764;2022-12-11T06:31:05;6.10;;;4.18;;
75986;SDS011;64671;44.726;37.764;2022-12-11T06:32:07;5.80;;;4.22;;
75986;SDS011;64671;44.726;37.764;2022-12-11T06:33:09;6.18;;;4.30;;
75986;SDS011;64671;44.726;37.764;2022-12-11T06:34:11;6.03;;;4.32;;
75986;SDS011;64671;44.726;37.764;2022-12-11T06:35:13;4.65;;;4.15;;
75986;SDS011;64671;44.726;37.764;2022-12-11T06:36:15;6.95;;;4.05;;
75986;SDS011;64671;44.726;37.764;2022-12-11T06:37:20;5.53;;;4.55;;
75986;SDS011;64671;44.726;37.764;2022-12-11T06:38:21;5.53;;;4.00;;
75986;SDS011;64671;44.726;37.764;2022-12-11T06:40:24;5.68;;;3.95;;
75986;SDS011;64671;44.726;37.764;2022-12-11T06:41:25;7.10;;;4.45;;
75986;SDS011;64671;44.726;37.764;2022-12-11T06:42:28;6.15;;;4.03;;
75986;SDS011;64671;44.726;37.764;2022-12-11T06:43:30;5.28;;;4.13;;
75986;SDS011;64671;44.726;37.764;2022-12-11T06:44:32;6.18;;;3.92;;
75986;SDS011;64671;44.726;37.764;2022-12-11T06:45:33;4.53;;;3.90;;
75986;SDS011;64671;44.726;37.764;2022-12-11T06:46:36;6.07;;;4.00;;
75986;SDS011;64671;44.726;37.764;2022-12-11T06:47:37;5.10;;;3.97;;
75986;SDS011;64671;44.726;37.764;2022-12-11T06:48:39;6.90;;;4.15;;
75986;SDS011;64671;44.726;37.764;2022-12-11T06:49:41;6.07;;;3.92;;
75986;SDS011;64671;44.726;37.764;2022-12-11T06:50:43;5.82;;;3.72;;
75986;SDS011;64671;44.726;37.764;2022-12-11T06:52:45;4.38;;;3.58;;
75986;SDS011;64671;44.726;37.764;2022-12-11T06:53:54;5.32;;;4.03;;
75986;SDS011;64671;44.726;37.764;2022-12-11T06:54:56;5.20;;;3.58;;
75986;SDS011;64671;44.726;37.764;2022-12-11T06:56:01;5.97;;;4.03;;
75986;SDS011;64671;44.726;37.764;2022-12-11T06:57:07;7.68;;;4.85;;
75986;SDS011;64671;44.726;37.764;2022-12-11T06:58:10;5.78;;;3.90;;
75986;SDS011;64671;44.726;37.764;2022-12-11T06:59:17;4.90;;;3.35;;
75986;SDS011;64671;44.726;37.764;2022-12-11T07:00:18;7.45;;;4.38;;
75986;SDS011;64671;44.726;37.764;2022-12-11T07:01:23;5.10;;;3.45;;
75986;SDS011;64671;44.726;37.764;2022-12-11T07:02:26;6.32;;;4.22;;
75986;SDS011;64671;44.726;37.764;2022-12-11T07:03:27;18.83;;;7.50;;
75986;SDS011;64671;44.726;37.764;2022-12-11T07:05:31;15.20;;;6.55;;
75986;SDS011;64671;44.726;37.764;2022-12-11T07:06:33;12.02;;;6.30;;
75986;SDS011;64671;44.726;37.764;2022-12-11T07:07:34;12.95;;;6.07;;
75986;SDS011;64671;44.726;37.764;2022-12-11T07:08:35;13.43;;;6.10;;
75986;SDS011;64671;44.726;37.764;2022-12-11T07:10:39;13.93;;;6.50;;
75986;SDS011;64671;44.726;37.764;2022-12-11T07:11:41;14.40;;;6.53;;
75986;SDS011;64671;44.726;37.764;2022-12-11T07:12:42;15.38;;;6.25;;
75986;SDS011;64671;44.726;37.764;2022-12-11T07:14:45;12.15;;;5.60;;
75986;SDS011;64671;44.726;37.764;2022-12-11T07:15:46;12.77;;;6.10;;
75986;SDS011;64671;44.726;37.764;2022-12-11T07:16:48;13.20;;;6.28;;
75986;SDS011;64671;44.726;37.764;2022-12-11T07:18:13;11.88;;;6.03;;
75986;SDS011;64671;44.726;37.764;2022-12-11T07:19:18;11.40;;;5.63;;
75986;SDS011;64671;44.726;37.764;2022-12-11T07:20:19;15.02;;;6.07;;
75986;SDS011;64671;44.726;37.764;2022-12-11T07:21:21;11.00;;;5.70;;
75986;SDS011;64671;44.726;37.764;2022-12-11T07:22:23;11.32;;;5.97;;
75986;SDS011;64671;44.726;37.764;2022-12-11T07:23:27;16.17;;;5.75;;
75986;SDS011;64671;44.726;37.764;2022-12-11T07:24:28;11.05;;;6.45;;
75986;SDS011;64671;44.726;37.764;2022-12-11T07:25:30;10.90;;;6.45;;
75986;SDS011;64671;44.726;37.764;2022-12-11T07:26:31;12.75;;;5.70;;
75986;SDS011;64671;44.726;37.764;2022-12-11T07:27:33;14.63;;;6.35;;
75986;SDS011;64671;44.726;37.764;2022-12-11T07:28:34;16.83;;;6.15;;
75986;SDS011;64671;44.726;37.764;2022-12-11T07:29:52;10.90;;;6.28;;
75986;SDS011;64671;44.726;37.764;2022-12-11T07:30:55;11.23;;;5.70;;
75986;SDS011;64671;44.726;37.764;2022-12-11T07:31:56;15.00;;;6.20;;
75986;SDS011;64671;44.726;37.764;2022-12-11T07:32:57;13.63;;;6.18;;
75986;SDS011;64671;44.726;37.764;2022-12-11T07:34:00;15.40;;;6.30;;
75986;SDS011;64671;44.726;37.764;2022-12-11T07:35:04;14.38;;;6.28;;
75986;SDS011;64671;44.726;37.764;2022-12-11T07:36:07;16.48;;;6.90;;
75986;SDS011;64671;44.726;37.764;2022-12-11T07:37:11;16.73;;;7.35;;
75986;SDS011;64671;44.726;37.764;2022-12-11T07:38:13;15.20;;;7.00;;
75986;SDS011;64671;44.726;37.764;2022-12-11T07:39:14;15.85;;;6.68;;
75986;SDS011;64671;44.726;37.764;2022-12-11T07:40:15;22.15;;;6.93;;
75986;SDS011;64671;44.726;37.764;2022-12-11T07:41:17;15.77;;;7.10;;
75986;SDS011;64671;44.726;37.764;2022-12-11T07:42:27;18.15;;;6.80;;
75986;SDS011;64671;44.726;37.764;2022-12-11T07:43:28;16.08;;;6.53;;
75986;SDS011;64671;44.726;37.764;2022-12-11T07:44:30;13.65;;;6.32;;
75986;SDS011;64671;44.726;37.764;2022-12-11T07:46:33;18.42;;;6.68;;
75986;SDS011;64671;44.726;37.764;2022-12-11T07:47:34;18.60;;;6.60;;
75986;SDS011;64671;44.726;37.764;2022-12-11T07:48:36;14.43;;;5.88;;
75986;SDS011;64671;44.726;37.764;2022-12-11T07:49:39;18.23;;;6.15;;
75986;SDS011;64671;44.726;37.764;2022-12-11T07:50:40;14.20;;;6.45;;
75986;SDS011;64671;44.726;37.764;2022-12-11T07:51:41;13.43;;;6.55;;
75986;SDS011;64671;44.726;37.764;2022-12-11T07:53:45;15.73;;;7.32;;
75986;SDS011;64671;44.726;37.764;2022-12-11T07:54:48;12.18;;;5.72;;
75986;SDS011;64671;44.726;37.764;2022-12-11T07:55:50;15.27;;;6.53;;
75986;SDS011;64671;44.726;37.764;2022-12-11T07:56:51;15.63;;;6.15;;
75986;SDS011;64671;44.726;37.764;2022-12-11T07:57:53;19.15;;;7.60;;
75986;SDS011;64671;44.726;37.764;2022-12-11T07:58:54;13.15;;;6.15;;
75986;SDS011;64671;44.726;37.764;2022-12-11T07:59:56;14.52;;;7.07;;
75986;SDS011;64671;44.726;37.764;2022-12-11T08:00:57;13.35;;;5.60;;
75986;SDS011;64671;44.726;37.764;2022-12-11T08:01:59;10.38;;;5.75;;
75986;SDS011;64671;44.726;37.764;2022-12-11T08:03:01;16.48;;;6.15;;
75986;SDS011;64671;44.726;37.764;2022-12-11T08:04:02;12.25;;;5.82;;
75986;SDS011;64671;44.726;37.764;2022-12-11T08:05:06;13.65;;;5.70;;
75986;SDS011;64671;44.726;37.764;2022-12-11T08:06:08;14.35;;;5.68;;
75986;SDS011;64671;44.726;37.764;2022-12-11T08:07:09;14.68;;;6.97;;
75986;SDS011;64671;44.726;37.764;2022-12-11T08:08:12;13.25;;;5.55;;
75986;SDS011;64671;44.726;37.764;2022-12-11T08:09:13;13.98;;;6.32;;
75986;SDS011;64671;44.726;37.764;2022-12-11T08:10:15;11.30;;;5.80;;
75986;SDS011;64671;44.726;37.764;2022-12-11T08:12:17;12.70;;;5.82;;
75986;SDS011;64671;44.726;37.764;2022-12-11T08:13:19;13.18;;;6.53;;
75986;SDS011;64671;44.726;37.764;2022-12-11T08:14:20;15.93;;;6.32;;
75986;SDS011;64671;44.726;37.764;2022-12-11T08:15:21;14.95;;;5.63;;
75986;SDS011;64671;44.726;37.764;2022-12-11T08:16:23;12.32;;;5.95;;
75986;SDS011;64671;44.726;37.764;2022-12-11T08:17:25;12.95;;;5.78;;
75986;SDS011;64671;44.726;37.764;2022-12-11T08:18:26;15.60;;;5.97;;
75986;SDS011;64671;44.726;37.764;2022-12-11T08:19:28;9.90;;;5.20;;
75986;SDS011;64671;44.726;37.764;2022-12-11T08:20:29;12.88;;;5.50;;
75986;SDS011;64671;44.726;37.764;2022-12-11T08:22:32;13.05;;;5.78;;
75986;SDS011;64671;44.726;37.764;2022-12-11T08:23:34;11.70;;;5.43;;
75986;SDS011;64671;44.726;37.764;2022-12-11T08:25:36;11.73;;;5.00;;
75986;SDS011;64671;44.726;37.764;2022-12-11T08:26:38;12.13;;;5.95;;
75986;SDS011;64671;44.726;37.764;2022-12-11T08:28:41;11.40;;;5.60;;
75986;SDS011;64671;44.726;37.764;2022-12-11T08:29:42;8.52;;;5.22;;
75986;SDS011;64671;44.726;37.764;2022-12-11T08:30:43;10.20;;;5.07;;
75986;SDS011;64671;44.726;37.764;2022-12-11T08:31:45;11.43;;;6.50;;
75986;SDS011;64671;44.726;37.764;2022-12-11T08:32:46;12.07;;;5.82;;
75986;SDS011;64671;44.726;37.764;2022-12-11T08:33:48;13.45;;;5.65;;
75986;SDS011;64671;44.726;37.764;2022-12-11T08:34:50;10.75;;;5.03;;
75986;SDS011;64671;44.726;37.764;2022-12-11T08:35:52;13.55;;;5.50;;
75986;SDS011;64671;44.726;37.764;2022-12-11T08:36:53;11.20;;;5.13;;
75986;SDS011;64671;44.726;37.764;2022-12-11T08:37:54;13.40;;;5.60;;
75986;SDS011;64671;44.726;37.764;2022-12-11T08:38:56;10.02;;;5.35;;
75986;SDS011;64671;44.726;37.764;2022-12-11T08:39:57;11.50;;;5.13;;
75986;SDS011;64671;44.726;37.764;2022-12-11T08:40:58;10.15;;;5.07;;
75986;SDS011;64671;44.726;37.764;2022-12-11T08:42:11;11.80;;;5.78;;